sensor_id;sensor_type;location;lat;lon;timestamp;P1;durP1;ratioP1;P2;durP2;ratioP2
19059;SDS011;9663;48.996;8.334;2022-11-18T00:02:06;1.48;;;0.52;;
19059;SDS011;9663;48.996;8.334;2022-11-18T00:04:31;2.05;;;0.57;;
19059;SDS011;9663;48.996;8.334;2022-11-18T00:06:57;1.15;;;0.50;;
19059;SDS011;9663;48.996;8.334;2022-11-18T00:09:23;1.58;;;0.50;;
19059;SDS011;9663;48.996;8.334;2022-11-18T00:11:49;2.40;;;0.50;;
19059;SDS011;9663;48.996;8.334;2022-11-18T00:14:33;0.70;;;0.40;;
19059;SDS011;9663;48.996;8.334;2022-11-18T00:16:59;1.60;;;0.50;;
19059;SDS011;9663;48.996;8.334;2022-11-18T00:19:28;1.90;;;0.50;;
19059;SDS011;9663;48.996;8.334;2022-11-18T00:21:58;1.42;;;0.40;;
19059;SDS011;9663;48.996;8.334;2022-11-18T00:24:25;1.65;;;0.50;;
19059;SDS011;9663;48.996;8.334;2022-11-18T00:26:52;1.52;;;0.50;;
19059;SDS011;9663;48.996;8.334;2022-11-18T00:29:19;1.45;;;0.60;;
19059;SDS011;9663;48.996;8.334;2022-11-18T00:31:47;1.30;;;0.50;;
19059;SDS011;9663;48.996;8.334;2022-11-18T00:34:14;1.60;;;0.50;;
19059;SDS011;9663;48.996;8.334;2022-11-18T00:36:42;1.35;;;0.50;;
19059;SDS011;9663;48.996;8.334;2022-11-18T00:39:10;1.27;;;0.50;;
19059;SDS011;9663;48.996;8.334;2022-11-18T00:41:38;0.85;;;0.40;;
19059;SDS011;9663;48.996;8.334;2022-11-18T00:44:23;1.95;;;0.60;;
19059;SDS011;9663;48.996;8.334;2022-11-18T00:46:48;1.42;;;0.50;;
19059;SDS011;9663;48.996;8.334;2022-11-18T00:49:14;0.80;;;0.40;;
19059;SDS011;9663;48.996;8.334;2022-11-18T00:51:40;1.58;;;0.50;;
19059;SDS011;9663;48.996;8.334;2022-11-18T00:54:05;1.80;;;0.47;;
19059;SDS011;9663;48.996;8.334;2022-11-18T00:56:31;0.73;;;0.40;;
19059;SDS011;9663;48.996;8.334;2022-11-18T00:58:57;2.45;;;0.68;;
19059;SDS011;9663;48.996;8.334;2022-11-18T01:01:23;1.75;;;0.60;;
19059;SDS011;9663;48.996;8.334;2022-11-18T01:03:50;2.78;;;0.80;;
19059;SDS011;9663;48.996;8.334;2022-11-18T01:06:15;2.63;;;0.73;;
19059;SDS011;9663;48.996;8.334;2022-11-18T01:08:41;2.83;;;0.82;;
19059;SDS011;9663;48.996;8.334;2022-11-18T01:11:07;1.30;;;0.60;;
19059;SDS011;9663;48.996;8.334;2022-11-18T01:13:52;3.25;;;0.82;;
19059;SDS011;9663;48.996;8.334;2022-11-18T01:16:19;1.58;;;0.60;;
19059;SDS011;9663;48.996;8.334;2022-11-18T01:18:48;2.50;;;0.82;;
19059;SDS011;9663;48.996;8.334;2022-11-18T01:21:14;2.90;;;0.70;;
19059;SDS011;9663;48.996;8.334;2022-11-18T01:23:41;2.13;;;0.50;;
19059;SDS011;9663;48.996;8.334;2022-11-18T01:26:08;1.38;;;0.50;;
19059;SDS011;9663;48.996;8.334;2022-11-18T01:28:36;1.02;;;0.40;;
19059;SDS011;9663;48.996;8.334;2022-11-18T01:31:05;1.60;;;0.52;;
19059;SDS011;9663;48.996;8.334;2022-11-18T01:33:34;1.25;;;0.45;;
19059;SDS011;9663;48.996;8.334;2022-11-18T01:36:02;1.45;;;0.70;;
19059;SDS011;9663;48.996;8.334;2022-11-18T01:38:28;2.25;;;0.65;;
19059;SDS011;9663;48.996;8.334;2022-11-18T01:40:55;1.58;;;0.57;;
19059;SDS011;9663;48.996;8.334;2022-11-18T01:43:21;3.15;;;0.68;;
19059;SDS011;9663;48.996;8.334;2022-11-18T01:45:48;1.38;;;0.50;;
19059;SDS011;9663;48.996;8.334;2022-11-18T01:48:19;4.13;;;1.05;;
19059;SDS011;9663;48.996;8.334;2022-11-18T01:50:57;2.80;;;0.70;;
19059;SDS011;9663;48.996;8.334;2022-11-18T01:53:41;2.28;;;0.55;;
19059;SDS011;9663;48.996;8.334;2022-11-18T01:56:25;2.05;;;0.50;;
19059;SDS011;9663;48.996;8.334;2022-11-18T01:59:02;1.92;;;0.60;;
19059;SDS011;9663;48.996;8.334;2022-11-18T02:01:39;2.10;;;0.55;;
19059;SDS011;9663;48.996;8.334;2022-11-18T02:04:06;1.02;;;0.50;;
19059;SDS011;9663;48.996;8.334;2022-11-18T02:06:34;1.27;;;0.47;;
19059;SDS011;9663;48.996;8.334;2022-11-18T02:09:00;2.35;;;0.60;;
19059;SDS011;9663;48.996;8.334;2022-11-18T02:11:27;1.25;;;0.50;;
19059;SDS011;9663;48.996;8.334;2022-11-18T02:14:13;1.63;;;0.52;;
19059;SDS011;9663;48.996;8.334;2022-11-18T02:20:09;0.40;;;0.40;;
19059;SDS011;9663;48.996;8.334;2022-11-18T02:26:16;1.50;;;0.50;;
19059;SDS011;9663;48.996;8.334;2022-11-18T02:29:09;1.17;;;0.40;;
19059;SDS011;9663;48.996;8.334;2022-11-18T02:31:50;1.42;;;0.50;;
19059;SDS011;9663;48.996;8.334;2022-11-18T02:40:09;2.35;;;0.60;;
19059;SDS011;9663;48.996;8.334;2022-11-18T02:42:44;1.55;;;0.50;;
19059;SDS011;9663;48.996;8.334;2022-11-18T02:45:19;1.05;;;0.50;;
19059;SDS011;9663;48.996;8.334;2022-11-18T02:47:46;2.47;;;0.70;;
19059;SDS011;9663;48.996;8.334;2022-11-18T02:50:16;1.40;;;0.60;;
19059;SDS011;9663;48.996;8.334;2022-11-18T02:52:50;1.02;;;0.50;;
19059;SDS011;9663;48.996;8.334;2022-11-18T02:55:22;0.80;;;0.60;;
19059;SDS011;9663;48.996;8.334;2022-11-18T02:57:52;0.90;;;0.40;;
19059;SDS011;9663;48.996;8.334;2022-11-18T03:00:18;1.80;;;0.60;;
19059;SDS011;9663;48.996;8.334;2022-11-18T03:02:45;1.75;;;0.50;;
19059;SDS011;9663;48.996;8.334;2022-11-18T03:05:18;1.63;;;0.50;;
19059;SDS011;9663;48.996;8.334;2022-11-18T03:08:16;0.75;;;0.40;;
19059;SDS011;9663;48.996;8.334;2022-11-18T03:10:51;0.88;;;0.40;;
19059;SDS011;9663;48.996;8.334;2022-11-18T03:13:35;0.75;;;0.40;;
19059;SDS011;9663;48.996;8.334;2022-11-18T03:16:38;0.85;;;0.40;;
19059;SDS011;9663;48.996;8.334;2022-11-18T03:22:02;1.17;;;0.40;;
19059;SDS011;9663;48.996;8.334;2022-11-18T03:24:45;1.20;;;0.50;;
19059;SDS011;9663;48.996;8.334;2022-11-18T03:27:25;1.08;;;0.50;;
19059;SDS011;9663;48.996;8.334;2022-11-18T03:30:10;1.02;;;0.40;;
19059;SDS011;9663;48.996;8.334;2022-11-18T03:32:42;1.58;;;0.50;;
19059;SDS011;9663;48.996;8.334;2022-11-18T03:35:18;0.85;;;0.40;;
19059;SDS011;9663;48.996;8.334;2022-11-18T03:37:50;1.83;;;0.50;;
19059;SDS011;9663;48.996;8.334;2022-11-18T03:40:25;0.60;;;0.47;;
19059;SDS011;9663;48.996;8.334;2022-11-18T03:42:59;1.13;;;0.40;;
19059;SDS011;9663;48.996;8.334;2022-11-18T03:45:44;0.70;;;0.50;;
19059;SDS011;9663;48.996;8.334;2022-11-18T03:48:18;1.50;;;0.60;;
19059;SDS011;9663;48.996;8.334;2022-11-18T03:53:26;0.80;;;0.40;;
19059;SDS011;9663;48.996;8.334;2022-11-18T03:56:00;0.90;;;0.50;;
19059;SDS011;9663;48.996;8.334;2022-11-18T03:58:36;1.33;;;0.50;;
19059;SDS011;9663;48.996;8.334;2022-11-18T04:04:11;1.05;;;0.43;;
19059;SDS011;9663;48.996;8.334;2022-11-18T04:06:48;1.85;;;0.50;;
19059;SDS011;9663;48.996;8.334;2022-11-18T04:09:34;1.15;;;0.50;;
19059;SDS011;9663;48.996;8.334;2022-11-18T04:12:09;1.77;;;0.50;;
19059;SDS011;9663;48.996;8.334;2022-11-18T04:14:42;2.03;;;0.60;;
19059;SDS011;9663;48.996;8.334;2022-11-18T04:17:11;1.10;;;0.40;;
19059;SDS011;9663;48.996;8.334;2022-11-18T04:19:40;1.08;;;0.50;;
19059;SDS011;9663;48.996;8.334;2022-11-18T04:22:06;1.75;;;0.50;;
19059;SDS011;9663;48.996;8.334;2022-11-18T04:24:33;0.90;;;0.43;;
19059;SDS011;9663;48.996;8.334;2022-11-18T04:26:59;0.77;;;0.43;;
19059;SDS011;9663;48.996;8.334;2022-11-18T04:29:27;0.90;;;0.47;;
19059;SDS011;9663;48.996;8.334;2022-11-18T04:31:57;0.82;;;0.40;;
19059;SDS011;9663;48.996;8.334;2022-11-18T04:34:24;0.85;;;0.50;;
19059;SDS011;9663;48.996;8.334;2022-11-18T04:36:51;0.70;;;0.35;;
19059;SDS011;9663;48.996;8.334;2022-11-18T04:39:16;0.82;;;0.40;;
19059;SDS011;9663;48.996;8.334;2022-11-18T04:41:43;1.23;;;0.50;;
19059;SDS011;9663;48.996;8.334;2022-11-18T04:44:35;1.67;;;0.70;;
19059;SDS011;9663;48.996;8.334;2022-11-18T04:47:02;0.98;;;0.50;;
19059;SDS011;9663;48.996;8.334;2022-11-18T04:49:30;1.05;;;0.50;;
19059;SDS011;9663;48.996;8.334;2022-11-18T04:51:57;1.35;;;0.45;;
19059;SDS011;9663;48.996;8.334;2022-11-18T04:54:24;0.85;;;0.50;;
19059;SDS011;9663;48.996;8.334;2022-11-18T04:56:51;0.63;;;0.40;;
19059;SDS011;9663;48.996;8.334;2022-11-18T04:59:18;1.25;;;0.50;;
19059;SDS011;9663;48.996;8.334;2022-11-18T05:01:48;1.85;;;0.50;;
19059;SDS011;9663;48.996;8.334;2022-11-18T05:04:18;0.98;;;0.40;;
19059;SDS011;9663;48.996;8.334;2022-11-18T05:06:46;0.70;;;0.32;;
19059;SDS011;9663;48.996;8.334;2022-11-18T05:09:12;0.40;;;0.40;;
19059;SDS011;9663;48.996;8.334;2022-11-18T05:11:39;0.73;;;0.40;;
19059;SDS011;9663;48.996;8.334;2022-11-18T05:14:25;0.60;;;0.30;;
19059;SDS011;9663;48.996;8.334;2022-11-18T05:16:51;1.52;;;0.45;;
19059;SDS011;9663;48.996;8.334;2022-11-18T05:19:19;0.82;;;0.40;;
19059;SDS011;9663;48.996;8.334;2022-11-18T05:21:44;0.73;;;0.35;;
19059;SDS011;9663;48.996;8.334;2022-11-18T05:24:10;2.70;;;0.50;;
19059;SDS011;9663;48.996;8.334;2022-11-18T05:26:36;0.77;;;0.40;;
19059;SDS011;9663;48.996;8.334;2022-11-18T05:29:02;0.77;;;0.40;;
19059;SDS011;9663;48.996;8.334;2022-11-18T05:31:28;0.40;;;0.40;;
19059;SDS011;9663;48.996;8.334;2022-11-18T05:33:54;0.52;;;0.40;;
19059;SDS011;9663;48.996;8.334;2022-11-18T05:36:20;0.60;;;0.40;;
19059;SDS011;9663;48.996;8.334;2022-11-18T05:38:46;0.95;;;0.40;;
19059;SDS011;9663;48.996;8.334;2022-11-18T05:41:13;0.82;;;0.40;;
19059;SDS011;9663;48.996;8.334;2022-11-18T05:43:59;0.47;;;0.40;;
19059;SDS011;9663;48.996;8.334;2022-11-18T05:46:26;0.85;;;0.50;;
19059;SDS011;9663;48.996;8.334;2022-11-18T05:48:52;1.80;;;0.50;;
19059;SDS011;9663;48.996;8.334;2022-11-18T05:51:18;1.17;;;0.40;;
19059;SDS011;9663;48.996;8.334;2022-11-18T05:53:44;0.30;;;0.30;;
19059;SDS011;9663;48.996;8.334;2022-11-18T05:56:28;1.20;;;0.40;;
19059;SDS011;9663;48.996;8.334;2022-11-18T05:59:01;1.02;;;0.50;;
19059;SDS011;9663;48.996;8.334;2022-11-18T06:04:25;0.80;;;0.40;;
19059;SDS011;9663;48.996;8.334;2022-11-18T06:07:18;0.55;;;0.40;;
19059;SDS011;9663;48.996;8.334;2022-11-18T06:09:57;0.57;;;0.40;;
19059;SDS011;9663;48.996;8.334;2022-11-18T06:12:25;0.93;;;0.40;;
19059;SDS011;9663;48.996;8.334;2022-11-18T06:14:57;0.80;;;0.50;;
19059;SDS011;9663;48.996;8.334;2022-11-18T06:17:34;0.80;;;0.40;;
19059;SDS011;9663;48.996;8.334;2022-11-18T06:20:28;1.33;;;0.50;;
19059;SDS011;9663;48.996;8.334;2022-11-18T06:22:55;1.25;;;0.50;;
19059;SDS011;9663;48.996;8.334;2022-11-18T06:25:22;1.05;;;0.47;;
19059;SDS011;9663;48.996;8.334;2022-11-18T06:27:49;0.85;;;0.40;;
19059;SDS011;9663;48.996;8.334;2022-11-18T06:30:19;1.13;;;0.40;;
19059;SDS011;9663;48.996;8.334;2022-11-18T06:32:44;0.65;;;0.40;;
19059;SDS011;9663;48.996;8.334;2022-11-18T06:35:10;1.27;;;0.50;;
19059;SDS011;9663;48.996;8.334;2022-11-18T06:37:36;0.80;;;0.40;;
19059;SDS011;9663;48.996;8.334;2022-11-18T06:40:02;0.68;;;0.40;;
19059;SDS011;9663;48.996;8.334;2022-11-18T06:42:28;1.02;;;0.50;;
19059;SDS011;9663;48.996;8.334;2022-11-18T06:45:12;0.68;;;0.40;;
19059;SDS011;9663;48.996;8.334;2022-11-18T06:47:38;0.60;;;0.43;;
19059;SDS011;9663;48.996;8.334;2022-11-18T06:50:04;0.93;;;0.43;;
19059;SDS011;9663;48.996;8.334;2022-11-18T06:52:31;0.93;;;0.43;;
19059;SDS011;9663;48.996;8.334;2022-11-18T06:54:57;0.90;;;0.50;;
19059;SDS011;9663;48.996;8.334;2022-11-18T06:57:23;2.10;;;0.40;;
19059;SDS011;9663;48.996;8.334;2022-11-18T06:59:49;1.00;;;0.50;;
19059;SDS011;9663;48.996;8.334;2022-11-18T07:02:14;0.60;;;0.40;;
19059;SDS011;9663;48.996;8.334;2022-11-18T07:04:42;1.17;;;0.50;;
19059;SDS011;9663;48.996;8.334;2022-11-18T07:07:09;1.65;;;0.55;;
19059;SDS011;9663;48.996;8.334;2022-11-18T07:09:35;1.60;;;0.50;;
19059;SDS011;9663;48.996;8.334;2022-11-18T07:12:01;1.23;;;0.50;;
19059;SDS011;9663;48.996;8.334;2022-11-18T07:14:29;0.93;;;0.40;;
19059;SDS011;9663;48.996;8.334;2022-11-18T07:16:55;0.85;;;0.45;;
19059;SDS011;9663;48.996;8.334;2022-11-18T07:19:21;2.28;;;0.60;;
19059;SDS011;9663;48.996;8.334;2022-11-18T07:21:47;1.02;;;0.50;;
19059;SDS011;9663;48.996;8.334;2022-11-18T07:24:13;1.00;;;0.50;;
19059;SDS011;9663;48.996;8.334;2022-11-18T07:26:40;1.20;;;0.50;;
19059;SDS011;9663;48.996;8.334;2022-11-18T07:29:07;1.17;;;0.40;;
19059;SDS011;9663;48.996;8.334;2022-11-18T07:31:32;0.73;;;0.40;;
19059;SDS011;9663;48.996;8.334;2022-11-18T07:34:04;0.88;;;0.40;;
19059;SDS011;9663;48.996;8.334;2022-11-18T07:36:30;1.40;;;0.50;;
19059;SDS011;9663;48.996;8.334;2022-11-18T07:38:59;1.27;;;0.50;;
19059;SDS011;9663;48.996;8.334;2022-11-18T07:41:28;1.20;;;0.40;;
19059;SDS011;9663;48.996;8.334;2022-11-18T07:43:55;1.15;;;0.50;;
19059;SDS011;9663;48.996;8.334;2022-11-18T07:46:27;1.50;;;0.60;;
19059;SDS011;9663;48.996;8.334;2022-11-18T07:48:54;1.05;;;0.55;;
19059;SDS011;9663;48.996;8.334;2022-11-18T07:51:27;1.25;;;0.60;;
19059;SDS011;9663;48.996;8.334;2022-11-18T07:53:58;1.55;;;0.68;;
19059;SDS011;9663;48.996;8.334;2022-11-18T07:56:24;2.05;;;0.63;;
19059;SDS011;9663;48.996;8.334;2022-11-18T07:58:51;1.48;;;0.70;;
19059;SDS011;9663;48.996;8.334;2022-11-18T08:01:19;2.00;;;0.60;;
19059;SDS011;9663;48.996;8.334;2022-11-18T08:03:48;0.95;;;0.50;;
19059;SDS011;9663;48.996;8.334;2022-11-18T08:06:15;1.38;;;0.60;;
19059;SDS011;9663;48.996;8.334;2022-11-18T08:08:43;1.42;;;0.63;;
19059;SDS011;9663;48.996;8.334;2022-11-18T08:11:11;2.03;;;0.52;;
19059;SDS011;9663;48.996;8.334;2022-11-18T08:13:40;1.33;;;0.57;;
19059;SDS011;9663;48.996;8.334;2022-11-18T08:16:13;1.63;;;0.60;;
19059;SDS011;9663;48.996;8.334;2022-11-18T08:18:41;1.42;;;0.60;;
19059;SDS011;9663;48.996;8.334;2022-11-18T08:21:08;1.33;;;0.50;;
19059;SDS011;9663;48.996;8.334;2022-11-18T08:23:34;0.93;;;0.50;;
19059;SDS011;9663;48.996;8.334;2022-11-18T08:26:04;0.82;;;0.43;;
19059;SDS011;9663;48.996;8.334;2022-11-18T08:28:39;0.70;;;0.40;;
19059;SDS011;9663;48.996;8.334;2022-11-18T08:31:14;1.70;;;0.60;;
19059;SDS011;9663;48.996;8.334;2022-11-18T08:33:59;0.85;;;0.43;;
19059;SDS011;9663;48.996;8.334;2022-11-18T08:36:31;1.02;;;0.52;;
19059;SDS011;9663;48.996;8.334;2022-11-18T08:39:01;0.73;;;0.40;;
19059;SDS011;9663;48.996;8.334;2022-11-18T08:41:34;1.10;;;0.60;;
19059;SDS011;9663;48.996;8.334;2022-11-18T08:44:03;0.70;;;0.43;;
19059;SDS011;9663;48.996;8.334;2022-11-18T08:46:30;1.25;;;0.60;;
19059;SDS011;9663;48.996;8.334;2022-11-18T08:48:57;1.42;;;0.57;;
19059;SDS011;9663;48.996;8.334;2022-11-18T08:51:23;1.60;;;0.65;;
19059;SDS011;9663;48.996;8.334;2022-11-18T08:53:50;1.60;;;0.50;;
19059;SDS011;9663;48.996;8.334;2022-11-18T08:56:17;1.15;;;0.50;;
19059;SDS011;9663;48.996;8.334;2022-11-18T08:58:45;1.20;;;0.47;;
19059;SDS011;9663;48.996;8.334;2022-11-18T09:01:12;2.50;;;0.50;;
19059;SDS011;9663;48.996;8.334;2022-11-18T09:03:38;1.85;;;0.60;;
19059;SDS011;9663;48.996;8.334;2022-11-18T09:06:05;1.33;;;0.60;;
19059;SDS011;9663;48.996;8.334;2022-11-18T09:08:35;1.08;;;0.55;;
19059;SDS011;9663;48.996;8.334;2022-11-18T09:11:08;7.65;;;0.70;;
19059;SDS011;9663;48.996;8.334;2022-11-18T09:13:37;1.67;;;0.70;;
19059;SDS011;9663;48.996;8.334;2022-11-18T09:16:04;1.30;;;0.55;;
19059;SDS011;9663;48.996;8.334;2022-11-18T09:18:31;1.38;;;0.60;;
19059;SDS011;9663;48.996;8.334;2022-11-18T09:20:58;1.35;;;0.60;;
19059;SDS011;9663;48.996;8.334;2022-11-18T09:23:27;1.23;;;0.60;;
19059;SDS011;9663;48.996;8.334;2022-11-18T09:25:58;2.25;;;0.70;;
19059;SDS011;9663;48.996;8.334;2022-11-18T09:28:31;1.52;;;0.70;;
19059;SDS011;9663;48.996;8.334;2022-11-18T09:30:57;2.15;;;0.70;;
19059;SDS011;9663;48.996;8.334;2022-11-18T09:33:27;1.73;;;0.70;;
19059;SDS011;9663;48.996;8.334;2022-11-18T09:35:55;1.10;;;0.50;;
19059;SDS011;9663;48.996;8.334;2022-11-18T09:38:21;1.52;;;0.60;;
19059;SDS011;9663;48.996;8.334;2022-11-18T09:43:54;1.30;;;0.60;;
19059;SDS011;9663;48.996;8.334;2022-11-18T09:49:17;1.52;;;0.60;;
19059;SDS011;9663;48.996;8.334;2022-11-18T09:51:51;1.27;;;0.63;;
19059;SDS011;9663;48.996;8.334;2022-11-18T09:54:32;1.23;;;0.68;;
19059;SDS011;9663;48.996;8.334;2022-11-18T09:57:00;2.17;;;0.80;;
19059;SDS011;9663;48.996;8.334;2022-11-18T09:59:27;1.95;;;0.80;;
19059;SDS011;9663;48.996;8.334;2022-11-18T10:02:00;1.65;;;0.60;;
19059;SDS011;9663;48.996;8.334;2022-11-18T10:05:20;1.55;;;0.68;;
19059;SDS011;9663;48.996;8.334;2022-11-18T10:25:02;1.77;;;0.70;;
19059;SDS011;9663;48.996;8.334;2022-11-18T10:27:33;2.15;;;0.60;;
19059;SDS011;9663;48.996;8.334;2022-11-18T10:30:10;2.13;;;0.80;;
19059;SDS011;9663;48.996;8.334;2022-11-18T10:32:57;2.55;;;0.90;;
19059;SDS011;9663;48.996;8.334;2022-11-18T10:35:40;2.30;;;0.80;;
19059;SDS011;9663;48.996;8.334;2022-11-18T10:46:26;2.22;;;0.68;;
19059;SDS011;9663;48.996;8.334;2022-11-18T10:51:35;1.77;;;0.80;;
19059;SDS011;9663;48.996;8.334;2022-11-18T10:56:47;1.70;;;0.60;;
19059;SDS011;9663;48.996;8.334;2022-11-18T11:04:56;2.58;;;0.73;;
19059;SDS011;9663;48.996;8.334;2022-11-18T11:07:27;1.98;;;0.70;;
19059;SDS011;9663;48.996;8.334;2022-11-18T11:12:45;2.67;;;0.80;;
19059;SDS011;9663;48.996;8.334;2022-11-18T11:15:24;2.40;;;0.80;;
19059;SDS011;9663;48.996;8.334;2022-11-18T11:18:03;3.38;;;0.80;;
19059;SDS011;9663;48.996;8.334;2022-11-18T11:20:59;1.45;;;0.60;;
19059;SDS011;9663;48.996;8.334;2022-11-18T11:23:24;1.83;;;0.70;;
19059;SDS011;9663;48.996;8.334;2022-11-18T11:25:56;2.80;;;0.77;;
19059;SDS011;9663;48.996;8.334;2022-11-18T11:28:51;1.63;;;0.70;;
19059;SDS011;9663;48.996;8.334;2022-11-18T11:34:21;1.75;;;0.60;;
19059;SDS011;9663;48.996;8.334;2022-11-18T11:37:05;1.40;;;0.60;;
19059;SDS011;9663;48.996;8.334;2022-11-18T11:51:56;1.63;;;0.52;;
19059;SDS011;9663;48.996;8.334;2022-11-18T11:54:39;2.20;;;0.70;;
19059;SDS011;9663;48.996;8.334;2022-11-18T12:00:33;2.65;;;0.70;;
19059;SDS011;9663;48.996;8.334;2022-11-18T12:03:13;1.33;;;0.60;;
19059;SDS011;9663;48.996;8.334;2022-11-18T12:06:09;2.17;;;0.70;;
19059;SDS011;9663;48.996;8.334;2022-11-18T12:08:35;2.45;;;0.80;;
19059;SDS011;9663;48.996;8.334;2022-11-18T12:14:11;3.25;;;0.70;;
19059;SDS011;9663;48.996;8.334;2022-11-18T12:17:05;1.90;;;0.70;;
19059;SDS011;9663;48.996;8.334;2022-11-18T12:19:46;1.50;;;0.63;;
19059;SDS011;9663;48.996;8.334;2022-11-18T12:22:12;1.55;;;0.50;;
19059;SDS011;9663;48.996;8.334;2022-11-18T12:24:39;1.50;;;0.70;;
19059;SDS011;9663;48.996;8.334;2022-11-18T12:40:08;1.98;;;0.70;;
19059;SDS011;9663;48.996;8.334;2022-11-18T12:42:55;1.90;;;0.50;;
19059;SDS011;9663;48.996;8.334;2022-11-18T12:51:09;2.35;;;0.80;;
19059;SDS011;9663;48.996;8.334;2022-11-18T12:53:51;2.63;;;0.93;;
19059;SDS011;9663;48.996;8.334;2022-11-18T12:58:55;1.30;;;0.60;;
19059;SDS011;9663;48.996;8.334;2022-11-18T13:01:27;1.52;;;0.50;;
19059;SDS011;9663;48.996;8.334;2022-11-18T13:06:36;1.85;;;0.63;;
19059;SDS011;9663;48.996;8.334;2022-11-18T13:09:03;1.27;;;0.60;;
19059;SDS011;9663;48.996;8.334;2022-11-18T13:11:53;1.95;;;0.70;;
19059;SDS011;9663;48.996;8.334;2022-11-18T13:14:28;1.73;;;0.50;;
19059;SDS011;9663;48.996;8.334;2022-11-18T13:17:40;1.85;;;0.60;;
19059;SDS011;9663;48.996;8.334;2022-11-18T13:20:39;2.17;;;0.60;;
19059;SDS011;9663;48.996;8.334;2022-11-18T13:25:51;1.92;;;0.60;;
19059;SDS011;9663;48.996;8.334;2022-11-18T13:28:20;1.08;;;0.50;;
19059;SDS011;9663;48.996;8.334;2022-11-18T13:33:59;2.03;;;0.52;;
19059;SDS011;9663;48.996;8.334;2022-11-18T13:36:44;1.38;;;0.50;;
19059;SDS011;9663;48.996;8.334;2022-11-18T13:42:06;2.40;;;0.63;;
19059;SDS011;9663;48.996;8.334;2022-11-18T13:44:55;1.92;;;0.63;;
19059;SDS011;9663;48.996;8.334;2022-11-18T13:50:44;2.75;;;0.60;;
19059;SDS011;9663;48.996;8.334;2022-11-18T14:01:23;1.05;;;0.50;;
19059;SDS011;9663;48.996;8.334;2022-11-18T14:03:58;1.40;;;0.60;;
19059;SDS011;9663;48.996;8.334;2022-11-18T14:09:06;1.65;;;0.50;;
19059;SDS011;9663;48.996;8.334;2022-11-18T14:11:33;2.55;;;0.70;;
19059;SDS011;9663;48.996;8.334;2022-11-18T14:14:11;2.40;;;0.63;;
19059;SDS011;9663;48.996;8.334;2022-11-18T14:17:16;2.90;;;0.80;;
19059;SDS011;9663;48.996;8.334;2022-11-18T14:19:51;2.78;;;0.93;;
19059;SDS011;9663;48.996;8.334;2022-11-18T14:22:21;4.32;;;1.15;;
19059;SDS011;9663;48.996;8.334;2022-11-18T14:25:00;3.67;;;1.00;;
19059;SDS011;9663;48.996;8.334;2022-11-18T14:27:43;2.17;;;0.70;;
19059;SDS011;9663;48.996;8.334;2022-11-18T14:30:28;3.38;;;1.15;;
19059;SDS011;9663;48.996;8.334;2022-11-18T14:38:24;3.40;;;0.60;;
19059;SDS011;9663;48.996;8.334;2022-11-18T14:41:08;2.10;;;0.75;;
19059;SDS011;9663;48.996;8.334;2022-11-18T14:43:37;2.97;;;0.80;;
19059;SDS011;9663;48.996;8.334;2022-11-18T14:46:11;2.53;;;0.70;;
19059;SDS011;9663;48.996;8.334;2022-11-18T14:48:42;1.77;;;0.60;;
19059;SDS011;9663;48.996;8.334;2022-11-18T14:51:12;2.53;;;0.80;;
19059;SDS011;9663;48.996;8.334;2022-11-18T14:53:40;1.67;;;0.60;;
19059;SDS011;9663;48.996;8.334;2022-11-18T14:56:16;2.97;;;0.65;;
19059;SDS011;9663;48.996;8.334;2022-11-18T14:58:52;3.05;;;0.57;;
19059;SDS011;9663;48.996;8.334;2022-11-18T15:01:22;2.25;;;0.70;;
19059;SDS011;9663;48.996;8.334;2022-11-18T15:03:49;0.73;;;0.40;;
19059;SDS011;9663;48.996;8.334;2022-11-18T15:06:16;3.28;;;0.70;;
19059;SDS011;9663;48.996;8.334;2022-11-18T15:08:46;1.08;;;0.40;;
19059;SDS011;9663;48.996;8.334;2022-11-18T15:11:16;2.47;;;0.60;;
19059;SDS011;9663;48.996;8.334;2022-11-18T15:13:43;1.48;;;0.52;;
19059;SDS011;9663;48.996;8.334;2022-11-18T15:16:19;1.10;;;0.50;;
19059;SDS011;9663;48.996;8.334;2022-11-18T15:18:54;1.38;;;0.60;;
19059;SDS011;9663;48.996;8.334;2022-11-18T15:21:24;1.65;;;0.57;;
19059;SDS011;9663;48.996;8.334;2022-11-18T15:23:51;1.70;;;0.55;;
19059;SDS011;9663;48.996;8.334;2022-11-18T15:26:21;1.52;;;0.50;;
19059;SDS011;9663;48.996;8.334;2022-11-18T15:28:52;2.50;;;0.70;;
19059;SDS011;9663;48.996;8.334;2022-11-18T15:31:20;2.88;;;0.55;;
19059;SDS011;9663;48.996;8.334;2022-11-18T15:33:47;1.25;;;0.50;;
19059;SDS011;9663;48.996;8.334;2022-11-18T15:36:16;3.00;;;0.70;;
19059;SDS011;9663;48.996;8.334;2022-11-18T15:38:44;1.38;;;0.50;;
19059;SDS011;9663;48.996;8.334;2022-11-18T15:41:18;3.00;;;0.70;;
19059;SDS011;9663;48.996;8.334;2022-11-18T15:43:45;1.25;;;0.52;;
19059;SDS011;9663;48.996;8.334;2022-11-18T15:46:13;2.17;;;0.55;;
19059;SDS011;9663;48.996;8.334;2022-11-18T15:48:40;1.48;;;0.75;;
19059;SDS011;9663;48.996;8.334;2022-11-18T15:51:06;3.45;;;0.80;;
19059;SDS011;9663;48.996;8.334;2022-11-18T15:53:33;1.70;;;0.60;;
19059;SDS011;9663;48.996;8.334;2022-11-18T15:59:04;1.60;;;0.70;;
19059;SDS011;9663;48.996;8.334;2022-11-18T16:01:32;2.20;;;0.70;;
19059;SDS011;9663;48.996;8.334;2022-11-18T16:04:01;1.15;;;0.60;;
19059;SDS011;9663;48.996;8.334;2022-11-18T16:06:30;1.75;;;0.70;;
19059;SDS011;9663;48.996;8.334;2022-11-18T16:08:56;2.75;;;0.88;;
19059;SDS011;9663;48.996;8.334;2022-11-18T16:11:23;2.28;;;0.70;;
19059;SDS011;9663;48.996;8.334;2022-11-18T16:14:08;1.58;;;0.63;;
19059;SDS011;9663;48.996;8.334;2022-11-18T16:16:36;2.58;;;0.68;;
19059;SDS011;9663;48.996;8.334;2022-11-18T16:19:07;1.90;;;0.68;;
19059;SDS011;9663;48.996;8.334;2022-11-18T16:21:37;2.13;;;0.70;;
19059;SDS011;9663;48.996;8.334;2022-11-18T16:24:06;1.52;;;0.60;;
19059;SDS011;9663;48.996;8.334;2022-11-18T16:26:35;1.45;;;0.52;;
19059;SDS011;9663;48.996;8.334;2022-11-18T16:29:02;1.85;;;0.70;;
19059;SDS011;9663;48.996;8.334;2022-11-18T16:31:29;2.60;;;0.65;;
19059;SDS011;9663;48.996;8.334;2022-11-18T16:36:40;3.35;;;0.70;;
19059;SDS011;9663;48.996;8.334;2022-11-18T16:39:11;2.90;;;0.68;;
19059;SDS011;9663;48.996;8.334;2022-11-18T16:41:40;3.58;;;0.77;;
19059;SDS011;9663;48.996;8.334;2022-11-18T16:44:08;1.65;;;0.70;;
19059;SDS011;9663;48.996;8.334;2022-11-18T16:46:37;3.22;;;0.70;;
19059;SDS011;9663;48.996;8.334;2022-11-18T16:49:05;4.05;;;0.82;;
19059;SDS011;9663;48.996;8.334;2022-11-18T16:51:36;2.25;;;0.70;;
19059;SDS011;9663;48.996;8.334;2022-11-18T16:54:06;2.20;;;0.70;;
19059;SDS011;9663;48.996;8.334;2022-11-18T16:56:42;3.00;;;0.82;;
19059;SDS011;9663;48.996;8.334;2022-11-18T16:59:11;2.53;;;0.77;;
19059;SDS011;9663;48.996;8.334;2022-11-18T17:01:56;3.67;;;0.77;;
19059;SDS011;9663;48.996;8.334;2022-11-18T17:04:23;3.00;;;1.00;;
19059;SDS011;9663;48.996;8.334;2022-11-18T17:06:53;1.95;;;0.70;;
19059;SDS011;9663;48.996;8.334;2022-11-18T17:09:23;3.00;;;0.70;;
19059;SDS011;9663;48.996;8.334;2022-11-18T17:11:50;3.97;;;0.90;;
19059;SDS011;9663;48.996;8.334;2022-11-18T17:14:18;3.08;;;0.75;;
19059;SDS011;9663;48.996;8.334;2022-11-18T17:16:44;4.05;;;1.00;;
19059;SDS011;9663;48.996;8.334;2022-11-18T17:19:12;2.95;;;0.80;;
19059;SDS011;9663;48.996;8.334;2022-11-18T17:21:41;3.05;;;0.80;;
19059;SDS011;9663;48.996;8.334;2022-11-18T17:24:08;1.95;;;0.70;;
19059;SDS011;9663;48.996;8.334;2022-11-18T17:26:36;2.90;;;0.80;;
19059;SDS011;9663;48.996;8.334;2022-11-18T17:29:02;1.73;;;0.63;;
19059;SDS011;9663;48.996;8.334;2022-11-18T17:31:28;3.15;;;0.80;;
19059;SDS011;9663;48.996;8.334;2022-11-18T17:33:54;2.10;;;0.70;;
19059;SDS011;9663;48.996;8.334;2022-11-18T17:36:24;2.05;;;0.70;;
19059;SDS011;9663;48.996;8.334;2022-11-18T17:38:52;1.80;;;0.73;;
19059;SDS011;9663;48.996;8.334;2022-11-18T17:41:24;1.50;;;0.60;;
19059;SDS011;9663;48.996;8.334;2022-11-18T17:44:11;2.15;;;0.68;;
19059;SDS011;9663;48.996;8.334;2022-11-18T17:46:40;2.17;;;0.85;;
19059;SDS011;9663;48.996;8.334;2022-11-18T17:49:10;1.83;;;0.80;;
19059;SDS011;9663;48.996;8.334;2022-11-18T17:51:47;2.25;;;0.70;;
19059;SDS011;9663;48.996;8.334;2022-11-18T17:54:15;2.47;;;0.80;;
19059;SDS011;9663;48.996;8.334;2022-11-18T17:56:41;1.75;;;0.73;;